createdAt,value
2022-11-01T00:00:28.596Z,0.00
2022-11-01T00:01:28.652Z,0.00
2022-11-01T00:02:28.628Z,0.00
2022-11-01T00:03:28.589Z,0.00
2022-11-01T00:04:28.624Z,0.00
2022-11-01T00:05:28.599Z,0.00
2022-11-01T00:06:28.566Z,0.00
2022-11-01T00:07:28.577Z,0.00
2022-11-01T00:08:29.654Z,0.00
2022-11-01T00:09:28.580Z,0.00
2022-11-01T00:10:28.543Z,0.00
2022-11-01T00:11:28.540Z,0.00
2022-11-01T00:12:28.569Z,0.00
2022-11-01T00:13:28.534Z,0.00
2022-11-01T00:14:28.524Z,0.00
2022-11-01T00:15:28.564Z,0.00
2022-11-01T00:16:28.494Z,0.00
2022-11-01T00:17:28.488Z,0.00
2022-11-01T00:18:28.503Z,0.00
2022-11-01T00:19:28.519Z,0.00
2022-11-01T00:20:28.507Z,0.00
2022-11-01T00:21:28.466Z,0.00
2022-11-01T00:22:28.459Z,0.00
2022-11-01T00:23:28.471Z,0.00
2022-11-01T00:24:28.492Z,0.00
2022-11-01T00:25:28.504Z,0.00
2022-11-01T00:26:28.471Z,0.00
2022-11-01T00:27:28.428Z,0.00
2022-11-01T00:28:28.437Z,0.00
2022-11-01T00:29:28.433Z,0.00
2022-11-01T00:30:28.500Z,0.00
2022-11-01T00:31:28.513Z,0.00
2022-11-01T00:32:28.399Z,0.00
2022-11-01T00:33:28.400Z,0.00
2022-11-01T00:34:28.398Z,0.00
2022-11-01T00:35:28.427Z,0.00
2022-11-01T00:36:28.404Z,0.00
2022-11-01T00:37:28.469Z,0.00
2022-11-01T00:38:28.370Z,0.00
2022-11-01T00:39:30.488Z,0.00
2022-11-01T00:40:28.352Z,0.00
2022-11-01T00:41:28.380Z,0.00
2022-11-01T00:42:28.383Z,0.00
2022-11-01T00:43:28.362Z,0.00
2022-11-01T00:44:28.340Z,0.00
2022-11-01T00:45:28.336Z,0.00
2022-11-01T00:46:28.328Z,0.00
2022-11-01T00:47:28.600Z,0.00
2022-11-01T00:48:28.337Z,0.00
2022-11-01T00:49:28.302Z,0.00
2022-11-01T00:50:28.315Z,0.00
2022-11-01T00:51:28.316Z,0.00
2022-11-01T00:52:28.269Z,0.00
2022-11-01T00:53:28.307Z,0.00
2022-11-01T00:54:28.301Z,0.00
2022-11-01T00:55:28.267Z,0.00
2022-11-01T00:56:28.253Z,0.00
2022-11-01T00:57:28.366Z,0.00
2022-11-01T00:58:28.268Z,0.00
2022-11-01T00:59:28.310Z,0.00
2022-11-01T01:00:28.253Z,0.00
2022-11-01T01:01:28.325Z,0.00
2022-11-01T01:02:29.309Z,0.00
2022-11-01T01:03:28.252Z,0.00
2022-11-01T01:04:28.266Z,0.00
2022-11-01T01:05:28.209Z,0.00
2022-11-01T01:06:28.270Z,0.00
2022-11-01T01:07:28.223Z,0.00
2022-11-01T01:08:28.190Z,0.00
2022-11-01T01:09:28.191Z,0.00
2022-11-01T01:10:28.210Z,0.00
2022-11-01T01:11:28.209Z,0.00
2022-11-01T01:12:28.171Z,0.00
2022-11-01T01:13:28.196Z,0.00
2022-11-01T01:14:32.243Z,0.00
2022-11-01T01:15:29.160Z,0.00
2022-11-01T01:16:28.220Z,0.00
2022-11-01T01:17:31.265Z,0.00
2022-11-01T01:18:29.139Z,0.00
2022-11-01T01:19:28.141Z,0.00
2022-11-01T01:20:28.142Z,0.00
2022-11-01T01:21:28.158Z,0.00
2022-11-01T01:22:28.130Z,0.00
2022-11-01T01:23:28.110Z,0.00
2022-11-01T01:24:28.108Z,0.00
2022-11-01T01:25:28.097Z,0.00
2022-11-01T01:26:28.120Z,0.00
2022-11-01T01:27:28.138Z,0.00
2022-11-01T01:28:28.073Z,0.00
2022-11-01T01:29:28.099Z,0.00
2022-11-01T01:30:28.055Z,0.00
2022-11-01T01:31:28.088Z,0.00
2022-11-01T01:32:28.096Z,0.00
2022-11-01T01:33:28.047Z,0.00
2022-11-01T01:34:28.050Z,0.00
2022-11-01T01:35:28.073Z,0.00
2022-11-01T01:36:28.040Z,0.00
2022-11-01T01:37:28.087Z,0.00
2022-11-01T01:38:28.042Z,0.00
2022-11-01T01:39:28.149Z,0.00
2022-11-01T01:40:28.007Z,0.00
2022-11-01T01:41:28.031Z,0.00
2022-11-01T01:42:28.024Z,0.00
2022-11-01T01:43:27.992Z,0.00
2022-11-01T01:44:28.022Z,0.00
2022-11-01T01:45:27.978Z,0.00
2022-11-01T01:46:27.980Z,0.00
2022-11-01T01:47:27.965Z,0.00
2022-11-01T01:48:28.014Z,0.00
2022-11-01T01:49:27.983Z,0.00
2022-11-01T01:50:28.953Z,0.00
2022-11-01T01:51:27.954Z,0.00
2022-11-01T01:52:27.966Z,0.00
2022-11-01T01:53:27.927Z,0.00
2022-11-01T01:54:27.950Z,0.00
2022-11-01T01:55:27.928Z,0.00
2022-11-01T01:56:27.929Z,0.00
2022-11-01T01:57:27.924Z,0.00
2022-11-01T01:58:27.896Z,0.00
2022-11-01T01:59:27.950Z,0.00
2022-11-01T02:00:27.901Z,0.00
2022-11-01T02:01:28.042Z,0.00
2022-11-01T02:02:27.897Z,0.00
2022-11-01T02:03:27.877Z,0.00
2022-11-01T02:04:27.929Z,0.00
2022-11-01T02:05:27.892Z,0.00
2022-11-01T02:06:27.852Z,0.00
2022-11-01T02:07:27.861Z,0.00
2022-11-01T02:08:28.025Z,0.00
2022-11-01T02:09:30.929Z,0.00
2022-11-01T02:10:27.823Z,0.00
2022-11-01T02:11:27.877Z,0.00
2022-11-01T02:12:27.834Z,0.00
2022-11-01T02:13:27.807Z,0.00
2022-11-01T02:14:27.882Z,0.00
2022-11-01T02:15:27.844Z,0.00
2022-11-01T02:16:27.806Z,0.00
2022-11-01T02:17:27.795Z,0.00
2022-11-01T02:18:27.817Z,0.00
2022-11-01T02:19:27.760Z,0.00
2022-11-01T02:20:27.744Z,0.00
2022-11-01T02:21:28.860Z,0.00
2022-11-01T02:22:27.791Z,0.00
2022-11-01T02:23:27.828Z,0.00
2022-11-01T02:24:27.737Z,0.00
2022-11-01T02:25:27.738Z,0.00
2022-11-01T02:26:27.733Z,0.00
2022-11-01T02:27:27.794Z,0.00
2022-11-01T02:28:27.767Z,0.00
2022-11-01T02:29:27.712Z,0.00
2022-11-01T02:30:27.704Z,0.00
2022-11-01T02:31:27.686Z,0.00
2022-11-01T02:32:27.695Z,0.00
2022-11-01T02:33:27.698Z,0.00
2022-11-01T02:34:27.688Z,0.00
2022-11-01T02:35:27.694Z,0.00
2022-11-01T02:36:27.659Z,0.00
2022-11-01T02:37:28.663Z,0.00
2022-11-01T02:38:27.655Z,0.00
2022-11-01T02:39:27.766Z,0.00
2022-11-01T02:40:27.671Z,0.00
2022-11-01T02:41:27.636Z,0.00
2022-11-01T02:42:27.648Z,0.00
2022-11-01T02:43:27.651Z,0.00
2022-11-01T02:44:27.631Z,0.00
2022-11-01T02:45:27.617Z,0.00
2022-11-01T02:46:27.615Z,0.00
2022-11-01T02:47:27.612Z,0.00
2022-11-01T02:48:27.609Z,0.00
2022-11-01T02:49:27.613Z,0.00
2022-11-01T02:50:27.620Z,0.00
2022-11-01T02:51:27.609Z,0.00
2022-11-01T02:52:27.587Z,0.00
2022-11-01T02:53:27.555Z,0.00
2022-11-01T02:54:27.559Z,0.00
2022-11-01T02:55:27.595Z,0.00
2022-11-01T02:56:27.559Z,0.00
2022-11-01T02:57:27.532Z,0.00
2022-11-01T02:58:27.556Z,0.00
2022-11-01T02:59:27.532Z,0.00
2022-11-01T03:00:27.513Z,0.00
2022-11-01T03:01:27.670Z,0.00
2022-11-01T03:02:27.497Z,0.00
2022-11-01T03:03:27.496Z,0.00
2022-11-01T03:04:27.494Z,0.00
2022-11-01T03:05:27.507Z,0.00
2022-11-01T03:06:27.498Z,0.00
2022-11-01T03:07:27.490Z,0.00
2022-11-01T03:08:27.455Z,0.00
2022-11-01T03:09:27.451Z,0.00
2022-11-01T03:10:27.447Z,0.00
2022-11-01T03:11:27.506Z,0.00
2022-11-01T03:12:30.534Z,0.00
2022-11-01T03:13:27.420Z,0.00
2022-11-01T03:14:27.408Z,0.00
2022-11-01T03:15:27.430Z,0.00
2022-11-01T03:16:27.560Z,0.00
2022-11-01T03:17:27.395Z,0.00
2022-11-01T03:18:27.408Z,0.00
2022-11-01T03:19:27.386Z,0.00
2022-11-01T03:20:27.382Z,0.00
2022-11-01T03:21:27.399Z,0.00
2022-11-01T03:22:27.401Z,0.00
2022-11-01T03:23:27.373Z,0.00
2022-11-01T03:24:27.367Z,0.00
2022-11-01T03:25:27.373Z,0.00
2022-11-01T03:26:27.346Z,0.00
2022-11-01T03:27:27.355Z,0.00
2022-11-01T03:28:27.345Z,0.00
2022-11-01T03:29:27.325Z,0.00
2022-11-01T03:30:27.324Z,0.00
2022-11-01T03:31:27.318Z,0.00
2022-11-01T03:32:28.342Z,0.00
2022-11-01T03:33:27.330Z,0.00
2022-11-01T03:34:27.298Z,0.00
2022-11-01T03:35:27.315Z,0.00
2022-11-01T03:36:27.282Z,0.00
2022-11-01T03:37:27.276Z,0.00
2022-11-01T03:38:27.280Z,0.00
2022-11-01T03:39:27.264Z,0.00
2022-11-01T03:40:27.285Z,0.00
2022-11-01T03:41:27.265Z,0.00
2022-11-01T03:42:27.256Z,0.00
2022-11-01T03:43:27.232Z,0.00
2022-11-01T03:44:27.244Z,0.00
2022-11-01T03:45:27.380Z,0.00
2022-11-01T03:46:27.210Z,0.00
2022-11-01T03:47:27.362Z,0.00
2022-11-01T03:48:27.201Z,0.00
2022-11-01T03:49:27.239Z,0.00
2022-11-01T03:50:27.183Z,0.00
2022-11-01T03:51:27.199Z,0.00
2022-11-01T03:52:27.171Z,0.00
2022-11-01T03:53:27.165Z,0.00
2022-11-01T03:54:27.156Z,0.00
2022-11-01T03:55:27.182Z,0.00
2022-11-01T03:56:27.160Z,0.00
2022-11-01T03:57:27.156Z,0.00
2022-11-01T03:58:27.158Z,0.00
2022-11-01T03:59:27.155Z,0.00
2022-11-01T04:00:27.137Z,0.00
2022-11-01T04:01:27.233Z,0.00
2022-11-01T04:02:27.101Z,0.00
2022-11-01T04:03:27.109Z,0.00
2022-11-01T04:04:27.113Z,0.00
2022-11-01T04:05:27.134Z,0.00
2022-11-01T04:06:27.111Z,0.00
2022-11-01T04:07:27.062Z,0.00
2022-11-01T04:08:27.088Z,0.00
2022-11-01T04:09:27.057Z,0.00
2022-11-01T04:10:27.096Z,0.00
2022-11-01T04:11:27.064Z,0.00
2022-11-01T04:12:27.040Z,0.00
2022-11-01T04:13:27.031Z,0.00
2022-11-01T04:14:27.035Z,0.00
2022-11-01T04:15:27.025Z,0.00
2022-11-01T04:16:27.035Z,0.00
2022-11-01T04:17:27.006Z,0.00
2022-11-01T04:18:27.022Z,0.00
2022-11-01T04:19:26.993Z,0.00
2022-11-01T04:20:27.014Z,0.00
2022-11-01T04:21:27.026Z,0.00
2022-11-01T04:22:26.975Z,0.00
2022-11-01T04:23:27.024Z,0.00
2022-11-01T04:24:26.969Z,0.00
2022-11-01T04:25:26.958Z,0.00
2022-11-01T04:26:26.956Z,0.00
2022-11-01T04:27:26.989Z,0.00
2022-11-01T04:28:26.935Z,0.00
2022-11-01T04:29:26.963Z,0.00
2022-11-01T04:30:26.912Z,0.00
2022-11-01T04:31:26.903Z,0.00
2022-11-01T04:32:26.900Z,0.00
2022-11-01T04:33:26.898Z,0.00
2022-11-01T04:34:26.941Z,0.00
2022-11-01T04:35:26.926Z,0.00
2022-11-01T04:36:26.877Z,0.00
2022-11-01T04:37:26.874Z,0.00
2022-11-01T04:38:26.882Z,0.00
2022-11-01T04:39:26.860Z,0.00
2022-11-01T04:40:26.878Z,0.00
2022-11-01T04:41:26.845Z,0.00
2022-11-01T04:42:26.883Z,0.00
2022-11-01T04:43:26.825Z,0.00
2022-11-01T04:44:26.843Z,0.00
2022-11-01T04:45:26.857Z,0.00
2022-11-01T04:46:26.825Z,0.00
2022-11-01T04:47:26.800Z,0.00
2022-11-01T04:48:26.789Z,0.00
2022-11-01T04:49:26.783Z,0.00
2022-11-01T04:50:26.815Z,0.00
2022-11-01T04:51:26.897Z,0.00
2022-11-01T04:52:26.759Z,0.00
2022-11-01T04:53:26.794Z,0.00
2022-11-01T04:54:26.754Z,0.00
2022-11-01T04:55:26.749Z,0.00
2022-11-01T04:56:26.779Z,0.00
2022-11-01T04:57:26.738Z,0.00
2022-11-01T04:58:26.728Z,0.00
2022-11-01T04:59:26.757Z,0.00
2022-11-01T05:00:26.713Z,0.00
2022-11-01T05:01:26.876Z,0.00
2022-11-01T05:02:26.708Z,0.00
2022-11-01T05:03:26.708Z,0.00
2022-11-01T05:04:26.693Z,0.00
2022-11-01T05:05:26.683Z,0.00
2022-11-01T05:06:26.840Z,0.00
2022-11-01T05:07:26.686Z,0.00
2022-11-01T05:08:26.770Z,0.00
2022-11-01T05:09:26.643Z,0.00
2022-11-01T05:10:26.647Z,0.00
2022-11-01T05:11:26.645Z,0.00
2022-11-01T05:12:26.668Z,0.00
2022-11-01T05:13:26.616Z,0.00
2022-11-01T05:14:26.649Z,0.00
2022-11-01T05:15:26.600Z,0.00
2022-11-01T05:16:26.604Z,0.00
2022-11-01T05:17:26.640Z,0.00
2022-11-01T05:18:26.616Z,0.00
2022-11-01T05:19:26.591Z,0.00
2022-11-01T05:20:26.601Z,0.00
2022-11-01T05:21:26.560Z,0.00
2022-11-01T05:22:26.543Z,0.00
2022-11-01T05:23:26.582Z,0.00
2022-11-01T05:24:26.555Z,0.00
2022-11-01T05:25:26.522Z,0.00
2022-11-01T05:26:26.554Z,0.00
2022-11-01T05:27:26.519Z,0.00
2022-11-01T05:28:26.524Z,0.00
2022-11-01T05:29:33.004Z,0.00
2022-11-01T05:30:28.506Z,0.00
2022-11-01T05:31:26.514Z,0.00
2022-11-01T05:32:26.496Z,0.00
2022-11-01T05:33:26.509Z,0.00
2022-11-01T05:34:26.551Z,0.00
2022-11-01T05:35:26.480Z,0.00
2022-11-01T05:36:26.494Z,0.00
2022-11-01T05:37:28.183Z,0.00
2022-11-01T05:38:27.450Z,0.00
2022-11-01T05:39:26.449Z,0.00
2022-11-01T05:40:26.427Z,0.00
2022-11-01T05:41:26.434Z,0.00
2022-11-01T05:42:26.430Z,0.00
2022-11-01T05:43:26.396Z,0.00
2022-11-01T05:44:26.427Z,0.00
2022-11-01T05:45:26.415Z,0.00
2022-11-01T05:46:26.380Z,0.00
2022-11-01T05:47:26.371Z,0.00
2022-11-01T05:48:26.395Z,0.00
2022-11-01T05:49:26.367Z,0.00
2022-11-01T05:50:26.392Z,0.00
2022-11-01T05:51:26.344Z,0.00
2022-11-01T05:52:26.344Z,0.00
2022-11-01T05:53:26.344Z,0.00
2022-11-01T05:54:26.353Z,0.00
2022-11-01T05:55:26.310Z,0.00
2022-11-01T05:56:26.298Z,0.00
2022-11-01T05:57:30.900Z,0.00
2022-11-01T05:58:30.574Z,0.00
2022-11-01T05:59:27.363Z,0.00
2022-11-01T06:00:26.303Z,0.00
2022-11-01T06:01:26.319Z,0.00
2022-11-01T06:02:26.302Z,0.00
2022-11-01T06:03:26.275Z,0.00
2022-11-01T06:04:26.267Z,0.00
2022-11-01T06:05:26.277Z,0.00
2022-11-01T06:06:26.265Z,0.00
2022-11-01T06:07:26.225Z,0.00
2022-11-01T06:08:26.213Z,0.00
2022-11-01T06:09:26.243Z,0.00
2022-11-01T06:10:26.199Z,0.00
2022-11-01T06:11:26.217Z,0.00
2022-11-01T06:12:26.192Z,0.00
2022-11-01T06:13:26.166Z,0.00
2022-11-01T06:14:26.260Z,0.00
2022-11-01T06:15:26.162Z,0.00
2022-11-01T06:16:26.272Z,0.00
2022-11-01T06:17:26.306Z,0.00
2022-11-01T06:18:26.172Z,0.00
2022-11-01T06:19:26.147Z,0.00
2022-11-01T06:20:26.115Z,0.00
2022-11-01T06:21:29.267Z,0.00
2022-11-01T06:22:27.152Z,0.00
2022-11-01T06:23:26.120Z,0.00
2022-11-01T06:24:26.108Z,0.00
2022-11-01T06:25:26.086Z,0.00
2022-11-01T06:26:26.073Z,0.00
2022-11-01T06:27:26.115Z,0.00
2022-11-01T06:28:26.061Z,0.00
2022-11-01T06:29:26.067Z,0.00
2022-11-01T06:30:26.049Z,0.00
2022-11-01T06:31:26.038Z,0.00
2022-11-01T06:32:26.069Z,0.00
2022-11-01T06:33:26.025Z,0.00
2022-11-01T06:34:26.039Z,0.00
2022-11-01T06:35:26.011Z,0.00
2022-11-01T06:36:26.017Z,0.00
2022-11-01T06:37:26.219Z,0.00
2022-11-01T06:38:26.006Z,0.00
2022-11-01T06:39:26.113Z,0.00
2022-11-01T06:40:25.978Z,0.00
2022-11-01T06:41:25.974Z,0.00
2022-11-01T06:42:25.976Z,0.00
2022-11-01T06:43:26.041Z,0.00
2022-11-01T06:44:25.994Z,0.00
2022-11-01T06:45:25.946Z,0.00
2022-11-01T06:46:25.938Z,0.00
2022-11-01T06:47:26.008Z,0.00
2022-11-01T06:48:25.916Z,0.00
2022-11-01T06:49:25.916Z,0.00
2022-11-01T06:50:25.913Z,0.00
2022-11-01T06:51:25.906Z,0.00
2022-11-01T06:52:25.923Z,0.00
2022-11-01T06:53:25.894Z,0.00
2022-11-01T06:54:25.919Z,0.00
2022-11-01T06:55:25.885Z,0.00
2022-11-01T06:56:25.872Z,0.00
2022-11-01T06:57:25.853Z,0.00
2022-11-01T06:58:25.883Z,0.00
2022-11-01T06:59:25.842Z,0.00
2022-11-01T07:00:25.860Z,5.62
2022-11-01T07:01:26.039Z,5.62
2022-11-01T07:02:29.754Z,5.62
2022-11-01T07:03:26.801Z,5.62
2022-11-01T07:04:25.810Z,5.62
2022-11-01T07:05:25.824Z,5.62
2022-11-01T07:06:25.840Z,5.62
2022-11-01T07:07:25.878Z,5.62
2022-11-01T07:08:25.786Z,5.62
2022-11-01T07:09:25.772Z,5.62
2022-11-01T07:10:25.796Z,5.62
2022-11-01T07:11:30.936Z,5.62
2022-11-01T07:12:27.739Z,5.62
2022-11-01T07:13:25.760Z,5.62
2022-11-01T07:14:25.738Z,11.25
2022-11-01T07:15:25.732Z,11.25
2022-11-01T07:16:25.725Z,11.25
2022-11-01T07:17:25.718Z,11.25
2022-11-01T07:18:25.714Z,11.25
2022-11-01T07:19:25.674Z,11.25
2022-11-01T07:20:25.676Z,16.88
2022-11-01T07:21:25.665Z,16.88
2022-11-01T07:22:25.689Z,16.88
2022-11-01T07:23:25.644Z,16.88
2022-11-01T07:24:25.647Z,16.88
2022-11-01T07:25:25.638Z,16.88
2022-11-01T07:26:25.650Z,16.88
2022-11-01T07:27:25.647Z,16.88
2022-11-01T07:28:25.653Z,16.88
2022-11-01T07:29:25.616Z,16.88
2022-11-01T07:30:25.741Z,22.50
2022-11-01T07:31:25.589Z,22.50
2022-11-01T07:32:25.590Z,22.50
2022-11-01T07:33:25.648Z,22.50
2022-11-01T07:34:25.607Z,22.50
2022-11-01T07:35:25.581Z,22.50
2022-11-01T07:36:25.570Z,22.50
2022-11-01T07:37:25.557Z,22.50
2022-11-01T07:38:25.582Z,22.50
2022-11-01T07:39:25.667Z,22.50
2022-11-01T07:40:25.561Z,22.50
2022-11-01T07:41:25.566Z,22.50
2022-11-01T07:42:25.539Z,22.50
2022-11-01T07:43:25.589Z,22.50
2022-11-01T07:44:25.652Z,22.50
2022-11-01T07:45:25.604Z,22.50
2022-11-01T07:46:25.526Z,28.12
2022-11-01T07:47:25.477Z,28.12
2022-11-01T07:48:25.490Z,28.12
2022-11-01T07:49:25.457Z,28.12
2022-11-01T07:50:25.479Z,33.75
2022-11-01T07:51:25.519Z,33.75
2022-11-01T07:52:25.427Z,28.12
2022-11-01T07:53:25.438Z,28.12
2022-11-01T07:54:25.422Z,28.12
2022-11-01T07:55:25.426Z,28.12
2022-11-01T07:56:25.464Z,22.50
2022-11-01T07:57:25.389Z,22.50
2022-11-01T07:58:25.391Z,16.88
2022-11-01T07:59:25.379Z,11.25
2022-11-01T08:00:26.608Z,11.25
2022-11-01T08:01:25.477Z,11.25
2022-11-01T08:02:25.474Z,11.25
2022-11-01T08:03:25.349Z,11.25
2022-11-01T08:04:25.346Z,11.25
2022-11-01T08:05:25.350Z,11.25
2022-11-01T08:06:25.319Z,11.25
2022-11-01T08:07:25.331Z,5.62
2022-11-01T08:08:25.311Z,5.62
2022-11-01T08:09:25.304Z,11.25
2022-11-01T08:10:25.433Z,11.25
2022-11-01T08:11:25.315Z,11.25
2022-11-01T08:12:25.270Z,16.88
2022-11-01T08:13:25.297Z,16.88
2022-11-01T08:14:25.286Z,16.88
2022-11-01T08:15:25.266Z,16.88
2022-11-01T08:16:25.279Z,16.88
2022-11-01T08:17:25.258Z,16.88
2022-11-01T08:18:25.324Z,16.88
2022-11-01T08:19:25.265Z,16.88
2022-11-01T08:20:25.352Z,16.88
2022-11-01T08:21:25.200Z,22.50
2022-11-01T08:22:25.225Z,22.50
2022-11-01T08:23:26.217Z,22.50
2022-11-01T08:24:25.218Z,22.50
2022-11-01T08:25:25.170Z,22.50
2022-11-01T08:26:25.170Z,22.50
2022-11-01T08:27:25.204Z,22.50
2022-11-01T08:28:25.144Z,22.50
2022-11-01T08:29:25.155Z,22.50
2022-11-01T08:30:25.149Z,22.50
2022-11-01T08:31:25.156Z,22.50
2022-11-01T08:32:25.161Z,22.50
2022-11-01T08:33:25.151Z,22.50
2022-11-01T08:34:25.137Z,22.50
2022-11-01T08:35:25.096Z,22.50
2022-11-01T08:36:25.095Z,22.50
2022-11-01T08:37:25.102Z,22.50
2022-11-01T08:38:25.071Z,22.50
2022-11-01T08:39:25.129Z,22.50
2022-11-01T08:40:25.050Z,28.12
2022-11-01T08:41:25.046Z,22.50
2022-11-01T08:42:25.079Z,28.12
2022-11-01T08:43:25.043Z,28.12
2022-11-01T08:44:25.071Z,28.12
2022-11-01T08:45:26.033Z,28.12
2022-11-01T08:46:25.085Z,28.12
2022-11-01T08:47:25.006Z,28.12
2022-11-01T08:48:25.000Z,28.12
2022-11-01T08:49:25.021Z,28.12
2022-11-01T08:50:24.983Z,28.12
2022-11-01T08:51:25.026Z,28.12
2022-11-01T08:52:24.969Z,28.12
2022-11-01T08:53:24.974Z,28.12
2022-11-01T08:54:24.987Z,28.12
2022-11-01T08:55:24.998Z,28.12
2022-11-01T08:56:24.941Z,28.12
2022-11-01T08:57:24.938Z,28.12
2022-11-01T08:58:24.920Z,28.12
2022-11-01T08:59:24.980Z,33.75
2022-11-01T09:00:24.948Z,33.75
2022-11-01T09:01:25.027Z,33.75
2022-11-01T09:02:25.049Z,39.38
2022-11-01T09:03:24.896Z,39.38
2022-11-01T09:04:24.885Z,39.38
2022-11-01T09:05:24.914Z,39.38
2022-11-01T09:06:24.908Z,39.38
2022-11-01T09:07:24.863Z,33.75
2022-11-01T09:08:24.847Z,33.75
2022-11-01T09:09:24.837Z,33.75
2022-11-01T09:10:24.875Z,33.75
2022-11-01T09:11:24.841Z,33.75
2022-11-01T09:12:25.100Z,33.75
2022-11-01T09:13:25.837Z,33.75
2022-11-01T09:14:24.838Z,28.12
2022-11-01T09:15:24.841Z,28.12
2022-11-01T09:16:24.790Z,28.12
2022-11-01T09:17:24.777Z,28.12
2022-11-01T09:18:24.793Z,28.12
2022-11-01T09:19:24.808Z,22.50
2022-11-01T09:20:24.900Z,22.50
2022-11-01T09:21:29.149Z,22.50
2022-11-01T09:22:26.975Z,22.50
2022-11-01T09:23:24.785Z,22.50
2022-11-01T09:24:24.751Z,22.50
2022-11-01T09:25:24.727Z,22.50
2022-11-01T09:26:24.736Z,22.50
2022-11-01T09:27:24.711Z,22.50
2022-11-01T09:28:24.731Z,22.50
2022-11-01T09:29:24.737Z,22.50
2022-11-01T09:30:24.701Z,22.50
2022-11-01T09:31:24.697Z,22.50
2022-11-01T09:32:24.690Z,22.50
2022-11-01T09:33:24.692Z,22.50
2022-11-01T09:34:25.655Z,22.50
2022-11-01T09:35:24.665Z,22.50
2022-11-01T09:36:24.660Z,22.50
2022-11-01T09:37:24.651Z,22.50
2022-11-01T09:38:24.790Z,28.12
2022-11-01T09:39:24.635Z,22.50
2022-11-01T09:40:24.608Z,28.12
2022-11-01T09:41:24.615Z,28.12
2022-11-01T09:42:24.626Z,33.75
2022-11-01T09:43:24.591Z,45.00
2022-11-01T09:44:24.579Z,45.00
2022-11-01T09:45:24.570Z,45.00
2022-11-01T09:46:24.799Z,45.00
2022-11-01T09:47:24.607Z,45.00
2022-11-01T09:48:24.645Z,50.62
2022-11-01T09:49:24.621Z,56.25
2022-11-01T09:50:24.584Z,61.88
2022-11-01T09:51:24.567Z,61.88
2022-11-01T09:52:24.539Z,56.25
2022-11-01T09:53:24.541Z,50.62
2022-11-01T09:54:24.588Z,61.88
2022-11-01T09:55:25.253Z,61.88
2022-11-01T09:56:24.522Z,61.88
2022-11-01T09:57:24.488Z,61.88
2022-11-01T09:58:24.489Z,61.88
2022-11-01T09:59:24.477Z,73.12
2022-11-01T10:00:24.474Z,84.38
2022-11-01T10:01:24.566Z,95.62
2022-11-01T10:02:24.536Z,106.88
2022-11-01T10:03:24.464Z,135.00
2022-11-01T10:04:24.495Z,331.88
2022-11-01T10:05:24.454Z,466.88
2022-11-01T10:06:24.517Z,433.12
2022-11-01T10:07:24.442Z,427.50
2022-11-01T10:08:24.419Z,495.00
2022-11-01T10:09:24.412Z,230.62
2022-11-01T10:10:24.390Z,433.12
2022-11-01T10:11:24.393Z,331.88
2022-11-01T10:12:24.461Z,275.62
2022-11-01T10:13:24.541Z,292.50
2022-11-01T10:14:24.367Z,253.12
2022-11-01T10:15:24.364Z,191.25
2022-11-01T10:16:24.350Z,140.62
2022-11-01T10:17:24.467Z,151.88
2022-11-01T10:18:24.348Z,146.25
2022-11-01T10:19:24.340Z,135.00
2022-11-01T10:20:24.357Z,84.38
2022-11-01T10:21:27.221Z,45.00
2022-11-01T10:22:25.355Z,45.00
2022-11-01T10:23:24.411Z,73.12
2022-11-01T10:24:24.344Z,129.38
2022-11-01T10:25:24.299Z,157.50
2022-11-01T10:26:24.297Z,73.12
2022-11-01T10:27:24.352Z,95.62
2022-11-01T10:28:24.299Z,56.25
2022-11-01T10:29:24.356Z,78.75
2022-11-01T10:30:24.285Z,73.12
2022-11-01T10:31:24.274Z,73.12
2022-11-01T10:32:24.279Z,84.38
2022-11-01T10:33:24.274Z,33.75
2022-11-01T10:34:24.279Z,73.12
2022-11-01T10:35:24.297Z,61.88
2022-11-01T10:36:24.291Z,56.25
2022-11-01T10:37:24.230Z,50.62
2022-11-01T10:38:32.295Z,95.62
2022-11-01T10:40:26.251Z,146.25
2022-11-01T10:41:24.390Z,33.75
2022-11-01T10:42:24.221Z,45.00
2022-11-01T10:43:24.326Z,168.75
2022-11-01T10:44:24.251Z,208.12
2022-11-01T10:45:24.229Z,146.25
2022-11-01T10:46:24.223Z,28.12
2022-11-01T10:47:24.181Z,28.12
2022-11-01T10:48:24.181Z,315.00
2022-11-01T10:49:24.555Z,292.50
2022-11-01T10:50:26.103Z,168.75
2022-11-01T10:51:27.830Z,180.00
2022-11-01T10:52:25.154Z,241.88
2022-11-01T10:53:24.165Z,101.25
2022-11-01T10:54:24.140Z,67.50
2022-11-01T10:55:24.134Z,185.62
2022-11-01T10:56:25.138Z,129.38
2022-11-01T10:57:24.134Z,67.50
2022-11-01T10:58:24.126Z,118.12
2022-11-01T10:59:24.102Z,151.88
2022-11-01T11:00:24.115Z,112.50
2022-11-01T11:01:24.315Z,118.12
2022-11-01T11:02:24.131Z,90.00
2022-11-01T11:03:24.116Z,90.00
2022-11-01T11:04:24.096Z,67.50
2022-11-01T11:05:24.069Z,106.88
2022-11-01T11:06:24.071Z,106.88
2022-11-01T11:07:24.321Z,106.88
2022-11-01T11:08:25.067Z,146.25
2022-11-01T11:09:24.082Z,157.50
2022-11-01T11:10:24.504Z,157.50
2022-11-01T11:11:24.048Z,129.38
2022-11-01T11:12:24.018Z,106.88
2022-11-01T11:13:24.056Z,90.00
2022-11-01T11:14:24.042Z,84.38
2022-11-01T11:15:24.019Z,90.00
2022-11-01T11:16:24.018Z,90.00
2022-11-01T11:17:24.020Z,78.75
2022-11-01T11:18:24.026Z,95.62
2022-11-01T11:19:23.991Z,95.62
2022-11-01T11:20:23.999Z,95.62
2022-11-01T11:21:27.946Z,84.38
2022-11-01T11:22:25.000Z,78.75
2022-11-01T11:23:23.952Z,67.50
2022-11-01T11:24:24.002Z,39.38
2022-11-01T11:25:23.945Z,67.50
2022-11-01T11:26:23.979Z,61.88
2022-11-01T11:27:24.073Z,61.88
2022-11-01T11:28:23.931Z,56.25
2022-11-01T11:29:23.932Z,56.25
2022-11-01T11:30:23.908Z,56.25
2022-11-01T11:31:23.912Z,56.25
2022-11-01T11:32:23.914Z,67.50
2022-11-01T11:33:23.904Z,67.50
2022-11-01T11:34:23.901Z,73.12
2022-11-01T11:35:23.877Z,78.75
2022-11-01T11:36:23.905Z,61.88
2022-11-01T11:37:23.868Z,45.00
2022-11-01T11:38:23.950Z,61.88
2022-11-01T11:39:30.389Z,45.00
2022-11-01T11:40:24.878Z,39.38
2022-11-01T11:41:23.840Z,39.38
2022-11-01T11:42:23.882Z,33.75
2022-11-01T11:43:23.902Z,33.75
2022-11-01T11:44:23.882Z,28.12
2022-11-01T11:45:23.821Z,33.75
2022-11-01T11:46:23.842Z,28.12
2022-11-01T11:47:23.802Z,50.62
2022-11-01T11:48:23.792Z,50.62
2022-11-01T11:49:23.820Z,50.62
2022-11-01T11:50:23.806Z,50.62
2022-11-01T11:51:23.808Z,50.62
2022-11-01T11:52:28.406Z,50.62
2022-11-01T11:53:25.864Z,50.62
2022-11-01T11:54:23.776Z,56.25
2022-11-01T11:55:23.805Z,56.25
2022-11-01T11:56:23.777Z,50.62
2022-11-01T11:57:23.759Z,50.62
2022-11-01T11:58:23.738Z,50.62
2022-11-01T11:59:23.741Z,50.62
2022-11-01T12:00:23.771Z,45.00
2022-11-01T12:01:23.790Z,45.00
2022-11-01T12:02:23.859Z,50.62
2022-11-01T12:03:23.701Z,56.25
2022-11-01T12:04:23.702Z,56.25
2022-11-01T12:05:23.717Z,61.88
2022-11-01T12:06:23.727Z,73.12
2022-11-01T12:07:23.712Z,95.62
2022-11-01T12:08:23.715Z,95.62
2022-11-01T12:09:23.729Z,101.25
2022-11-01T12:10:23.696Z,106.88
2022-11-01T12:11:23.660Z,101.25
2022-11-01T12:12:23.669Z,90.00
2022-11-01T12:13:23.757Z,101.25
2022-11-01T12:14:24.061Z,106.88
2022-11-01T12:15:24.565Z,106.88
2022-11-01T12:16:24.992Z,101.25
2022-11-01T12:17:23.648Z,106.88
2022-11-01T12:18:23.623Z,106.88
2022-11-01T12:19:23.669Z,106.88
2022-11-01T12:20:24.674Z,106.88
2022-11-01T12:21:23.624Z,112.50
2022-11-01T12:22:23.616Z,118.12
2022-11-01T12:23:23.620Z,118.12
2022-11-01T12:24:23.601Z,112.50
2022-11-01T12:25:23.579Z,112.50
2022-11-01T12:26:23.578Z,112.50
2022-11-01T12:27:23.577Z,112.50
2022-11-01T12:28:23.593Z,101.25
2022-11-01T12:29:23.548Z,90.00
2022-11-01T12:30:23.644Z,90.00
2022-11-01T12:31:27.505Z,95.62
2022-11-01T12:32:24.572Z,90.00
2022-11-01T12:33:23.543Z,84.38
2022-11-01T12:34:23.535Z,78.75
2022-11-01T12:35:23.514Z,90.00
2022-11-01T12:36:24.034Z,101.25
2022-11-01T12:37:23.573Z,90.00
2022-11-01T12:38:23.554Z,112.50
2022-11-01T12:39:23.514Z,101.25
2022-11-01T12:40:23.523Z,101.25
2022-11-01T12:41:23.507Z,101.25
2022-11-01T12:42:23.470Z,106.88
2022-11-01T12:43:23.483Z,112.50
2022-11-01T12:44:23.509Z,101.25
2022-11-01T12:45:23.499Z,106.88
2022-11-01T12:46:23.453Z,106.88
2022-11-01T12:47:24.488Z,73.12
2022-11-01T12:48:23.480Z,101.25
2022-11-01T12:49:23.488Z,101.25
2022-11-01T12:50:23.549Z,90.00
2022-11-01T12:51:23.455Z,84.38
2022-11-01T12:52:23.433Z,73.12
2022-11-01T12:53:23.417Z,84.38
2022-11-01T12:54:23.411Z,95.62
2022-11-01T12:55:23.424Z,101.25
2022-11-01T12:56:23.395Z,90.00
2022-11-01T12:57:23.444Z,90.00
2022-11-01T12:58:23.401Z,84.38
2022-11-01T12:59:23.483Z,84.38
2022-11-01T13:00:23.455Z,84.38
2022-11-01T13:01:23.541Z,90.00
2022-11-01T13:02:23.451Z,101.25
2022-11-01T13:03:23.419Z,95.62
2022-11-01T13:04:26.507Z,78.75
2022-11-01T13:05:24.351Z,67.50